createdAt,value
2023-03-28T00:00:15.759Z,1022.69
2023-03-28T00:00:45.866Z,1022.99
2023-03-28T00:01:16.572Z,1022.99
2023-03-28T00:01:47.665Z,1022.79
2023-03-28T00:02:18.792Z,1022.69
2023-03-28T00:02:49.700Z,1022.69
2023-03-28T00:03:21.198Z,1022.79
2023-03-28T00:03:51.887Z,1022.79
2023-03-28T00:04:22.526Z,1022.99
2023-03-28T00:04:54.059Z,1022.99
2023-03-28T00:05:25.173Z,1022.99
2023-03-28T00:05:56.016Z,1022.99
2023-03-28T00:06:26.844Z,1022.99
2023-03-28T00:06:57.865Z,1022.99
2023-03-28T00:07:28.932Z,1022.79
2023-03-28T00:07:59.994Z,1022.79
2023-03-28T00:08:31.250Z,1022.79
2023-03-28T00:09:01.609Z,1022.79
2023-03-28T00:09:32.630Z,1022.79
2023-03-28T00:10:03.976Z,1022.79
2023-03-28T00:10:34.769Z,1022.89
2023-03-28T00:11:05.972Z,1022.89
2023-03-28T00:11:36.866Z,1022.99
2023-03-28T00:12:07.487Z,1022.99
2023-03-28T00:12:38.825Z,1022.89
2023-03-28T00:13:10.047Z,1022.89
2023-03-28T00:13:41.023Z,1022.89
2023-03-28T00:14:14.149Z,1022.89
2023-03-28T00:14:42.785Z,1022.79
2023-03-28T00:15:16.881Z,1022.79
2023-03-28T00:15:44.653Z,1022.79
2023-03-28T00:16:15.717Z,1022.79
2023-03-28T00:16:46.948Z,1022.89
2023-03-28T00:17:17.880Z,1022.69
2023-03-28T00:17:49.051Z,1022.69
2023-03-28T00:18:19.954Z,1023.09
2023-03-28T00:18:51.076Z,1023.09
2023-03-28T00:19:22.698Z,1022.89
2023-03-28T00:19:52.647Z,1022.89
2023-03-28T00:20:24.067Z,1022.99
2023-03-28T00:20:54.562Z,1022.99
2023-03-28T00:21:25.634Z,1022.89
2023-03-28T00:21:56.932Z,1022.89
2023-03-28T00:22:27.893Z,1023.09
2023-03-28T00:22:59.047Z,1023.09
2023-03-28T00:23:29.900Z,1023.20
2023-03-28T00:24:00.629Z,1023.20
2023-03-28T00:24:32.249Z,1022.79
2023-03-28T00:25:03.123Z,1022.79
2023-03-28T00:25:33.662Z,1022.99
2023-03-28T00:26:05.014Z,1022.99
2023-03-28T00:26:36.226Z,1022.89
2023-03-28T00:27:07.033Z,1022.89
2023-03-28T00:27:37.867Z,1022.89
2023-03-28T00:28:08.979Z,1022.89
2023-03-28T00:28:39.981Z,1022.99
2023-03-28T00:29:10.627Z,1022.99
2023-03-28T00:29:41.645Z,1022.79
2023-03-28T00:30:13.813Z,1022.79
2023-03-28T00:30:43.622Z,1022.79
2023-03-28T00:31:14.952Z,1022.79
2023-03-28T00:31:46.176Z,1022.79
2023-03-28T00:32:16.951Z,1022.79
2023-03-28T00:32:48.140Z,1022.99
2023-03-28T00:33:18.967Z,1022.99
2023-03-28T00:33:50.128Z,1022.99
2023-03-28T00:34:21.086Z,1022.89
2023-03-28T00:34:51.996Z,1022.89
2023-03-28T00:35:23.326Z,1022.89
2023-03-28T00:35:53.872Z,1022.89
2023-03-28T00:36:25.003Z,1022.89
2023-03-28T00:36:56.002Z,1022.89
2023-03-28T00:37:26.870Z,1023.20
2023-03-28T00:37:57.682Z,1023.20
2023-03-28T00:38:29.361Z,1022.99
2023-03-28T00:39:00.295Z,1022.99
2023-03-28T00:39:30.747Z,1022.99
2023-03-28T00:40:02.334Z,1022.99
2023-03-28T00:40:32.708Z,1022.89
2023-03-28T00:41:03.866Z,1022.89
2023-03-28T00:41:35.608Z,1023.09
2023-03-28T00:42:06.065Z,1023.09
2023-03-28T00:42:37.129Z,1023.20
2023-03-28T00:43:07.683Z,1023.20
2023-03-28T00:43:39.070Z,1022.89
2023-03-28T00:44:10.053Z,1022.89
2023-03-28T00:44:41.171Z,1022.99
2023-03-28T00:45:12.779Z,1022.99
2023-03-28T00:45:46.136Z,1023.09
2023-03-28T00:46:14.451Z,1023.09
2023-03-28T00:46:45.300Z,1022.89
2023-03-28T00:47:16.056Z,1022.89
2023-03-28T00:47:48.126Z,1023.20
2023-03-28T00:48:18.146Z,1023.09
2023-03-28T00:48:48.908Z,1023.09
2023-03-28T00:49:20.169Z,1022.99
2023-03-28T00:49:50.733Z,1022.99
2023-03-28T00:50:22.764Z,1023.09
2023-03-28T00:50:53.066Z,1023.09
2023-03-28T00:51:23.802Z,1022.99
2023-03-28T00:51:55.226Z,1022.99
2023-03-28T00:52:25.751Z,1023.20
2023-03-28T00:52:57.197Z,1023.20
2023-03-28T00:53:27.813Z,1023.20
2023-03-28T00:53:59.037Z,1023.20
2023-03-28T00:54:30.067Z,1022.99
2023-03-28T00:55:01.366Z,1022.99
2023-03-28T00:55:31.728Z,1023.09
2023-03-28T00:56:02.811Z,1023.09
2023-03-28T00:56:34.148Z,1023.09
2023-03-28T00:57:05.252Z,1023.09
2023-03-28T00:57:35.836Z,1023.20
2023-03-28T00:58:07.113Z,1023.20
2023-03-28T00:58:38.008Z,1023.09
2023-03-28T00:59:09.369Z,1023.09
2023-03-28T00:59:40.008Z,1023.30
2023-03-28T01:00:11.830Z,1023.30
2023-03-28T01:00:42.093Z,1023.20
2023-03-28T01:01:13.003Z,1023.20
2023-03-28T01:01:44.177Z,1023.20
2023-03-28T01:02:15.094Z,1023.20
2023-03-28T01:02:46.289Z,1023.09
2023-03-28T01:03:17.234Z,1023.09
2023-03-28T01:03:48.317Z,1023.09
2023-03-28T01:04:19.328Z,1023.09
2023-03-28T01:04:49.989Z,1023.09
2023-03-28T01:05:21.489Z,1023.09
2023-03-28T01:05:51.784Z,1023.09
2023-03-28T01:06:22.782Z,1023.20
2023-03-28T01:06:54.168Z,1023.20
2023-03-28T01:07:24.923Z,1023.09
2023-03-28T01:07:55.848Z,1023.09
2023-03-28T01:08:27.119Z,1023.09
2023-03-28T01:08:58.179Z,1023.09
2023-03-28T01:09:29.339Z,1023.20
2023-03-28T01:10:00.840Z,1023.20
2023-03-28T01:10:31.322Z,1023.20
2023-03-28T01:11:02.082Z,1023.20
2023-03-28T01:11:33.021Z,1023.09
2023-03-28T01:12:03.875Z,1023.09
2023-03-28T01:12:35.043Z,1023.20
2023-03-28T01:13:06.283Z,1023.20
2023-03-28T01:13:36.904Z,1023.30
2023-03-28T01:14:07.859Z,1023.30
2023-03-28T01:14:39.019Z,1023.30
2023-03-28T01:15:10.780Z,1023.30
2023-03-28T01:15:40.805Z,1023.30
2023-03-28T01:16:12.742Z,1023.30
2023-03-28T01:16:43.225Z,1023.20
2023-03-28T01:17:16.136Z,1023.20
2023-03-28T01:17:45.211Z,1023.40
2023-03-28T01:18:17.965Z,1023.09
2023-03-28T01:18:47.249Z,1023.09
2023-03-28T01:19:19.220Z,1023.30
2023-03-28T01:19:49.277Z,1023.30
2023-03-28T01:20:20.326Z,1023.20
2023-03-28T01:20:50.802Z,1023.20
2023-03-28T01:21:22.238Z,1023.20
2023-03-28T01:21:52.846Z,1023.20
2023-03-28T01:22:24.301Z,1023.30
2023-03-28T01:22:57.204Z,1023.30
2023-03-28T01:23:25.886Z,1023.40
2023-03-28T01:24:11.372Z,1023.40
2023-03-28T01:24:28.059Z,1023.40
2023-03-28T01:24:59.203Z,1023.40
2023-03-28T01:25:30.529Z,1023.50
2023-03-28T01:26:00.997Z,1023.50
2023-03-28T01:26:31.889Z,1023.30
2023-03-28T01:27:03.180Z,1023.30
2023-03-28T01:27:34.210Z,1023.40
2023-03-28T01:28:05.267Z,1023.40
2023-03-28T01:28:36.245Z,1023.30
2023-03-28T01:29:07.160Z,1023.30
2023-03-28T01:29:37.884Z,1023.40
2023-03-28T01:30:09.673Z,1023.40
2023-03-28T01:30:40.179Z,1023.50
2023-03-28T01:31:10.945Z,1023.50
2023-03-28T01:31:42.057Z,1023.60
2023-03-28T01:32:12.898Z,1023.60
2023-03-28T01:32:44.216Z,1023.30
2023-03-28T01:33:15.164Z,1023.30
2023-03-28T01:33:46.323Z,1023.40
2023-03-28T01:34:17.418Z,1023.40
2023-03-28T01:34:48.153Z,1023.50
2023-03-28T01:35:19.768Z,1023.60
2023-03-28T01:35:49.943Z,1023.60
2023-03-28T01:36:33.759Z,1023.60
2023-03-28T01:36:51.963Z,1023.60
2023-03-28T01:37:23.300Z,1023.20
2023-03-28T01:37:54.298Z,1023.20
2023-03-28T01:38:25.278Z,1023.30
2023-03-28T01:38:56.402Z,1023.30
2023-03-28T01:39:26.948Z,1023.40
2023-03-28T01:39:57.966Z,1023.40
2023-03-28T01:40:30.136Z,1023.40
2023-03-28T01:41:00.257Z,1023.40
2023-03-28T01:41:31.330Z,1023.40
2023-03-28T01:42:02.257Z,1023.40
2023-03-28T01:42:33.327Z,1023.50
2023-03-28T01:43:03.937Z,1023.50
2023-03-28T01:43:36.139Z,1023.50
2023-03-28T01:44:06.048Z,1023.50
2023-03-28T01:44:37.183Z,1023.30
2023-03-28T01:45:08.787Z,1023.30
2023-03-28T01:45:39.298Z,1023.40
2023-03-28T01:46:10.345Z,1023.40
2023-03-28T01:46:41.701Z,1023.40
2023-03-28T01:47:11.924Z,1023.40
2023-03-28T01:47:43.343Z,1023.60
2023-03-28T01:48:14.444Z,1023.60
2023-03-28T01:48:47.109Z,1023.40
2023-03-28T01:49:16.320Z,1023.40
2023-03-28T01:49:49.206Z,1023.30
2023-03-28T01:50:18.778Z,1023.50
2023-03-28T01:50:49.286Z,1023.50
2023-03-28T01:51:19.938Z,1023.30
2023-03-28T01:51:51.559Z,1023.30
2023-03-28T01:52:21.906Z,1023.50
2023-03-28T01:52:53.269Z,1023.50
2023-03-28T01:53:24.336Z,1023.50
2023-03-28T01:53:55.101Z,1023.50
2023-03-28T01:54:26.196Z,1023.50
2023-03-28T01:54:57.018Z,1023.50
2023-03-28T01:55:29.055Z,1023.50
2023-03-28T01:55:59.642Z,1023.50
2023-03-28T01:56:30.220Z,1023.40
2023-03-28T01:57:01.286Z,1023.40
2023-03-28T01:57:32.073Z,1023.60
2023-03-28T01:58:03.360Z,1023.60
2023-03-28T01:58:34.401Z,1023.60
2023-03-28T01:59:05.001Z,1023.60
2023-03-28T01:59:36.392Z,1023.60
2023-03-28T02:00:07.785Z,1023.60
2023-03-28T02:00:38.357Z,1023.60
2023-03-28T02:01:09.375Z,1023.60
2023-03-28T02:01:40.294Z,1023.70
2023-03-28T02:02:11.425Z,1023.70
2023-03-28T02:02:42.160Z,1023.20
2023-03-28T02:03:13.517Z,1023.20
2023-03-28T02:03:44.514Z,1023.40
2023-03-28T02:04:20.533Z,1023.40
2023-03-28T02:04:46.040Z,1023.60
2023-03-28T02:05:17.962Z,1023.60
2023-03-28T02:05:48.320Z,1023.81
2023-03-28T02:06:19.478Z,1023.70
2023-03-28T02:06:50.601Z,1023.70
2023-03-28T02:07:21.436Z,1023.70
2023-03-28T02:07:52.421Z,1023.70
2023-03-28T02:08:23.426Z,1023.50
2023-03-28T02:08:54.282Z,1023.50
2023-03-28T02:09:25.355Z,1023.50
2023-03-28T02:09:56.122Z,1023.50
2023-03-28T02:10:27.433Z,1023.50
2023-03-28T02:10:57.966Z,1023.50
2023-03-28T02:11:29.352Z,1023.60
2023-03-28T02:12:00.363Z,1023.60
2023-03-28T02:12:31.496Z,1023.60
2023-03-28T02:13:02.425Z,1023.60
2023-03-28T02:13:33.289Z,1023.81
2023-03-28T02:14:04.842Z,1023.81
2023-03-28T02:14:35.039Z,1023.70
2023-03-28T02:15:06.824Z,1023.70
2023-03-28T02:15:37.642Z,1023.60
2023-03-28T02:16:08.352Z,1023.60
2023-03-28T02:16:39.428Z,1023.60
2023-03-28T02:17:10.443Z,1023.60
2023-03-28T02:17:41.419Z,1023.60
2023-03-28T02:18:12.472Z,1023.60
2023-03-28T02:18:43.465Z,1023.60
2023-03-28T02:19:14.032Z,1023.60
2023-03-28T02:19:45.248Z,1023.50
2023-03-28T02:20:18.806Z,1023.60
2023-03-28T02:20:47.364Z,1023.60
2023-03-28T02:21:19.925Z,1023.81
2023-03-28T02:21:49.070Z,1023.81
2023-03-28T02:22:21.775Z,1023.60
2023-03-28T02:22:51.086Z,1023.60
2023-03-28T02:23:22.081Z,1023.60
2023-03-28T02:23:53.544Z,1023.60
2023-03-28T02:24:39.496Z,1023.50
2023-03-28T02:24:55.265Z,1023.50
2023-03-28T02:25:26.431Z,1023.30
2023-03-28T02:25:57.578Z,1023.30
2023-03-28T02:26:28.140Z,1023.60
2023-03-28T02:26:59.415Z,1023.60
2023-03-28T02:27:30.061Z,1023.50
2023-03-28T02:28:01.429Z,1023.50
2023-03-28T02:28:32.447Z,1023.60
2023-03-28T02:29:03.703Z,1023.60
2023-03-28T02:29:34.416Z,1023.70
2023-03-28T02:30:06.204Z,1023.70
2023-03-28T02:30:36.350Z,1023.70
2023-03-28T02:31:07.033Z,1023.70
2023-03-28T02:31:38.178Z,1023.50
2023-03-28T02:32:09.556Z,1023.50
2023-03-28T02:32:40.108Z,1023.60
2023-03-28T02:33:11.388Z,1023.60
2023-03-28T02:33:42.244Z,1023.50
2023-03-28T02:34:13.443Z,1023.50
2023-03-28T02:34:44.483Z,1023.70
2023-03-28T02:35:15.611Z,1023.70
2023-03-28T02:35:46.274Z,1023.50
2023-03-28T02:36:17.404Z,1023.50
2023-03-28T02:36:48.052Z,1023.70
2023-03-28T02:37:19.524Z,1023.50
2023-03-28T02:37:50.109Z,1023.50
2023-03-28T02:38:21.092Z,1023.81
2023-03-28T02:38:52.142Z,1023.81
2023-03-28T02:39:23.549Z,1023.60
2023-03-28T02:39:54.424Z,1023.60
2023-03-28T02:40:25.436Z,1023.70
2023-03-28T02:40:56.045Z,1023.70
2023-03-28T02:41:27.065Z,1023.70
2023-03-28T02:41:58.684Z,1023.70
2023-03-28T02:42:29.483Z,1023.70
2023-03-28T02:43:00.131Z,1023.70
2023-03-28T02:43:31.504Z,1023.60
2023-03-28T02:44:02.186Z,1023.60
2023-03-28T02:44:33.528Z,1023.60
2023-03-28T02:45:05.150Z,1023.60
2023-03-28T02:45:36.066Z,1023.60
2023-03-28T02:46:06.076Z,1023.60
2023-03-28T02:46:37.220Z,1023.70
2023-03-28T02:47:08.226Z,1023.70
2023-03-28T02:47:39.212Z,1023.81
2023-03-28T02:48:10.192Z,1023.81
2023-03-28T02:48:41.516Z,1023.70
2023-03-28T02:49:12.306Z,1023.70
2023-03-28T02:49:49.908Z,1023.70
2023-03-28T02:50:14.613Z,1023.70
2023-03-28T02:50:45.346Z,1023.70
2023-03-28T02:51:16.569Z,1023.70
2023-03-28T02:51:49.112Z,1023.50
2023-03-28T02:52:18.365Z,1023.60
2023-03-28T02:52:49.808Z,1023.60
2023-03-28T02:53:20.142Z,1023.70
2023-03-28T02:53:51.153Z,1023.70
2023-03-28T02:54:22.285Z,1023.60
2023-03-28T02:54:53.424Z,1023.60
2023-03-28T02:55:25.126Z,1023.91
2023-03-28T02:55:55.474Z,1023.91
2023-03-28T02:56:26.693Z,1023.81
2023-03-28T02:56:57.456Z,1023.81
2023-03-28T02:57:28.395Z,1023.91
2023-03-28T02:57:59.186Z,1023.91
2023-03-28T02:58:30.568Z,1023.91
2023-03-28T02:59:01.623Z,1023.91
2023-03-28T02:59:32.848Z,1023.81
2023-03-28T03:00:04.325Z,1023.81
2023-03-28T03:00:34.447Z,1023.81
2023-03-28T03:01:05.429Z,1023.81
2023-03-28T03:01:36.269Z,1023.70
2023-03-28T03:02:07.511Z,1023.70
2023-03-28T03:02:38.472Z,1023.60
2023-03-28T03:03:09.261Z,1023.60
2023-03-28T03:03:40.685Z,1023.70
2023-03-28T03:04:11.244Z,1023.70
2023-03-28T03:04:42.363Z,1023.81
2023-03-28T03:05:13.686Z,1023.81
2023-03-28T03:05:44.487Z,1023.50
2023-03-28T03:06:15.180Z,1023.50
2023-03-28T03:06:46.168Z,1023.81
2023-03-28T03:07:17.409Z,1023.81
2023-03-28T03:07:48.560Z,1023.91
2023-03-28T03:08:19.249Z,1024.01
2023-03-28T03:08:50.229Z,1024.01
2023-03-28T03:09:21.579Z,1023.81
2023-03-28T03:09:52.152Z,1023.81
2023-03-28T03:10:23.481Z,1023.70
2023-03-28T03:10:54.378Z,1023.70
2023-03-28T03:11:25.216Z,1023.81
2023-03-28T03:11:56.279Z,1023.81
2023-03-28T03:12:27.543Z,1023.81
2023-03-28T03:12:58.462Z,1023.81
2023-03-28T03:13:29.429Z,1023.91
2023-03-28T03:14:00.505Z,1023.91
2023-03-28T03:14:31.641Z,1023.70
2023-03-28T03:15:02.928Z,1023.70
2023-03-28T03:15:33.637Z,1023.81
2023-03-28T03:16:04.505Z,1023.81
2023-03-28T03:16:35.591Z,1023.60
2023-03-28T03:17:06.445Z,1023.60
2023-03-28T03:17:37.336Z,1023.81
2023-03-28T03:18:08.575Z,1023.81
2023-03-28T03:18:39.674Z,1023.70
2023-03-28T03:19:10.265Z,1023.70
2023-03-28T03:19:43.201Z,1023.81
2023-03-28T03:20:12.579Z,1023.81
2023-03-28T03:20:43.591Z,1023.60
2023-03-28T03:21:14.714Z,1023.60
2023-03-28T03:21:45.532Z,1023.60
2023-03-28T03:22:20.776Z,1023.60
2023-03-28T03:22:47.282Z,1023.81
2023-03-28T03:23:19.566Z,1023.70
2023-03-28T03:23:49.690Z,1023.70
2023-03-28T03:24:22.049Z,1023.60
2023-03-28T03:24:51.595Z,1023.60
2023-03-28T03:25:23.010Z,1023.81
2023-03-28T03:25:53.645Z,1023.81
2023-03-28T03:26:24.583Z,1023.81
2023-03-28T03:26:55.492Z,1023.81
2023-03-28T03:27:26.413Z,1023.70
2023-03-28T03:27:57.278Z,1023.70
2023-03-28T03:28:28.608Z,1023.91
2023-03-28T03:28:59.674Z,1023.91
2023-03-28T03:29:38.757Z,1024.01
2023-03-28T03:30:02.315Z,1024.01
2023-03-28T03:30:32.986Z,1023.81
2023-03-28T03:31:03.583Z,1023.81
2023-03-28T03:31:34.668Z,1023.91
2023-03-28T03:32:05.539Z,1023.91
2023-03-28T03:32:36.389Z,1023.81
2023-03-28T03:33:07.308Z,1023.81
2023-03-28T03:33:38.315Z,1023.81
2023-03-28T03:34:09.508Z,1023.81
2023-03-28T03:34:40.294Z,1023.70
2023-03-28T03:35:12.213Z,1023.70
2023-03-28T03:35:42.653Z,1024.01
2023-03-28T03:36:13.354Z,1024.01
2023-03-28T03:36:44.802Z,1023.81
2023-03-28T03:37:15.318Z,1023.81
2023-03-28T03:37:46.688Z,1024.01
2023-03-28T03:38:17.745Z,1024.01
2023-03-28T03:38:48.347Z,1023.70
2023-03-28T03:39:19.813Z,1024.11
2023-03-28T03:39:50.375Z,1024.11
2023-03-28T03:40:23.028Z,1023.81
2023-03-28T03:40:52.751Z,1023.81
2023-03-28T03:41:23.438Z,1023.91
2023-03-28T03:41:54.618Z,1023.91
2023-03-28T03:42:25.371Z,1023.81
2023-03-28T03:42:56.357Z,1023.81
2023-03-28T03:43:27.633Z,1023.70
2023-03-28T03:43:58.647Z,1023.70
2023-03-28T03:44:29.552Z,1023.91
2023-03-28T03:45:01.055Z,1023.91
2023-03-28T03:45:31.552Z,1023.70
2023-03-28T03:46:02.936Z,1023.70
2023-03-28T03:46:33.653Z,1023.81
2023-03-28T03:47:04.701Z,1023.81
2023-03-28T03:47:35.428Z,1023.70
2023-03-28T03:48:06.751Z,1023.70
2023-03-28T03:48:37.361Z,1023.70
2023-03-28T03:49:08.523Z,1023.70
2023-03-28T03:49:39.305Z,1023.60
2023-03-28T03:50:10.844Z,1023.60
2023-03-28T03:50:41.710Z,1023.81
2023-03-28T03:51:12.688Z,1023.81
2023-03-28T03:51:43.740Z,1023.91
2023-03-28T03:52:14.381Z,1023.91
2023-03-28T03:52:45.772Z,1023.60
2023-03-28T03:53:16.695Z,1023.60
2023-03-28T03:53:47.661Z,1023.91
2023-03-28T03:54:18.716Z,1023.70
2023-03-28T03:54:50.606Z,1023.70
2023-03-28T03:55:20.945Z,1023.70
2023-03-28T03:55:53.149Z,1023.70
2023-03-28T03:56:22.601Z,1023.81
2023-03-28T03:56:53.373Z,1023.81
2023-03-28T03:57:24.578Z,1023.81
2023-03-28T03:57:55.422Z,1023.81
2023-03-28T03:58:26.656Z,1023.70
2023-03-28T03:58:57.752Z,1023.70
2023-03-28T03:59:28.585Z,1023.70
2023-03-28T03:59:59.759Z,1023.70
2023-03-28T04:00:31.451Z,1023.81
2023-03-28T04:01:01.294Z,1023.81
2023-03-28T04:01:32.451Z,1023.91
2023-03-28T04:02:03.710Z,1023.91
2023-03-28T04:02:34.573Z,1023.60
2023-03-28T04:03:05.465Z,1023.60
2023-03-28T04:03:36.479Z,1023.70
2023-03-28T04:04:07.645Z,1023.70
2023-03-28T04:04:39.055Z,1023.81
2023-03-28T04:05:10.026Z,1023.81
2023-03-28T04:05:40.591Z,1023.81
2023-03-28T04:06:11.449Z,1023.81
2023-03-28T04:06:42.774Z,1023.70
2023-03-28T04:07:13.802Z,1023.70
2023-03-28T04:07:44.621Z,1023.91
2023-03-28T04:08:15.681Z,1023.91
2023-03-28T04:08:46.748Z,1024.01
2023-03-28T04:09:17.814Z,1024.01
2023-03-28T04:09:49.000Z,1023.81
2023-03-28T04:10:20.031Z,1023.91
2023-03-28T04:10:50.363Z,1023.91
2023-03-28T04:11:21.741Z,1023.70
2023-03-28T04:11:52.780Z,1023.70
2023-03-28T04:12:23.641Z,1023.81
2023-03-28T04:12:54.807Z,1023.81
2023-03-28T04:13:25.468Z,1023.91
2023-03-28T04:13:56.708Z,1023.91
2023-03-28T04:14:27.689Z,1023.70
2023-03-28T04:14:58.475Z,1023.70
2023-03-28T04:15:30.570Z,1023.70
2023-03-28T04:16:00.805Z,1023.70
2023-03-28T04:16:40.156Z,1024.01
2023-03-28T04:17:02.671Z,1024.01
2023-03-28T04:17:33.717Z,1023.91
2023-03-28T04:18:07.568Z,1023.91
2023-03-28T04:18:35.650Z,1023.81
2023-03-28T04:19:06.711Z,1023.81
2023-03-28T04:19:37.771Z,1023.91
2023-03-28T04:20:08.816Z,1023.91
2023-03-28T04:20:39.782Z,1024.01
2023-03-28T04:21:11.100Z,1024.01
2023-03-28T04:21:41.915Z,1023.91
2023-03-28T04:22:12.757Z,1023.91
2023-03-28T04:22:46.398Z,1023.91
2023-03-28T04:23:14.849Z,1023.91
2023-03-28T04:23:45.775Z,1023.91
2023-03-28T04:24:16.693Z,1023.91
2023-03-28T04:24:47.715Z,1024.01
2023-03-28T04:25:19.150Z,1023.91
2023-03-28T04:25:49.625Z,1023.91
2023-03-28T04:26:22.461Z,1024.01
2023-03-28T04:26:51.501Z,1024.01
2023-03-28T04:27:23.585Z,1023.81
2023-03-28T04:27:53.418Z,1023.81
2023-03-28T04:28:24.470Z,1024.11
2023-03-28T04:28:55.463Z,1024.11
2023-03-28T04:29:26.807Z,1024.01
2023-03-28T04:29:57.971Z,1024.01
2023-03-28T04:30:29.804Z,1024.01
2023-03-28T04:30:59.949Z,1024.01
2023-03-28T04:31:30.719Z,1023.81
2023-03-28T04:32:01.836Z,1023.81
2023-03-28T04:32:32.746Z,1024.01
2023-03-28T04:33:04.141Z,1024.01
2023-03-28T04:33:34.732Z,1024.11
2023-03-28T04:34:05.813Z,1024.11
2023-03-28T04:34:38.551Z,1023.70
2023-03-28T04:35:08.093Z,1023.70
2023-03-28T04:35:38.799Z,1024.11
2023-03-28T04:36:09.918Z,1024.11
2023-03-28T04:36:40.691Z,1024.01
2023-03-28T04:37:11.527Z,1024.01
2023-03-28T04:37:42.875Z,1023.81
2023-03-28T04:38:20.609Z,1023.81
2023-03-28T04:38:44.888Z,1024.01
2023-03-28T04:39:15.772Z,1024.01
2023-03-28T04:39:46.860Z,1023.91
2023-03-28T04:40:18.346Z,1023.91
2023-03-28T04:40:48.478Z,1024.01
2023-03-28T04:41:19.918Z,1024.01
2023-03-28T04:41:50.905Z,1024.01
2023-03-28T04:42:21.545Z,1024.11
2023-03-28T04:42:52.772Z,1024.11
2023-03-28T04:43:23.819Z,1024.01
2023-03-28T04:43:54.900Z,1024.01
2023-03-28T04:44:25.502Z,1023.81
2023-03-28T04:44:56.567Z,1023.81
2023-03-28T04:45:28.676Z,1024.11
2023-03-28T04:45:59.072Z,1024.11
2023-03-28T04:46:29.807Z,1024.11
2023-03-28T04:47:01.208Z,1024.11
2023-03-28T04:47:31.857Z,1024.11
2023-03-28T04:48:02.798Z,1024.11
2023-03-28T04:48:33.756Z,1024.11
2023-03-28T04:49:04.923Z,1024.11
2023-03-28T04:49:35.830Z,1024.11
2023-03-28T04:50:07.622Z,1024.11
2023-03-28T04:50:37.680Z,1024.11
2023-03-28T04:51:08.607Z,1024.11
2023-03-28T04:51:39.793Z,1023.91
2023-03-28T04:52:10.753Z,1023.91
2023-03-28T04:52:41.848Z,1024.11
2023-03-28T04:53:12.976Z,1024.11
2023-03-28T04:53:43.751Z,1024.21
2023-03-28T04:54:14.762Z,1024.21
2023-03-28T04:54:45.845Z,1024.11
2023-03-28T04:55:17.485Z,1024.11
2023-03-28T04:55:47.747Z,1024.21
2023-03-28T04:56:18.841Z,1024.21
2023-03-28T04:56:49.791Z,1024.21
2023-03-28T04:57:21.022Z,1024.31
2023-03-28T04:57:52.895Z,1024.31
2023-03-28T04:58:23.038Z,1024.11
2023-03-28T04:58:54.615Z,1024.11
2023-03-28T04:59:25.033Z,1024.01
2023-03-28T04:59:56.067Z,1024.01
2023-03-28T05:00:27.959Z,1024.31
2023-03-28T05:00:58.845Z,1024.31
2023-03-28T05:01:28.830Z,1024.21
2023-03-28T05:01:59.782Z,1024.21
2023-03-28T05:02:31.044Z,1024.21
2023-03-28T05:03:01.909Z,1024.21
2023-03-28T05:03:33.040Z,1024.41
2023-03-28T05:04:03.978Z,1024.41
2023-03-28T05:04:35.015Z,1024.31
2023-03-28T05:05:05.774Z,1024.31
2023-03-28T05:05:36.569Z,1024.01
2023-03-28T05:06:07.644Z,1024.01
2023-03-28T05:06:39.180Z,1024.31
2023-03-28T05:07:10.316Z,1024.31
2023-03-28T05:07:40.617Z,1024.21
2023-03-28T05:08:11.672Z,1024.21
2023-03-28T05:08:42.942Z,1024.41
2023-03-28T05:09:13.985Z,1024.41
2023-03-28T05:09:44.683Z,1024.31
2023-03-28T05:10:16.476Z,1024.31
2023-03-28T05:10:46.844Z,1024.21
2023-03-28T05:11:18.066Z,1024.21
2023-03-28T05:11:49.114Z,1024.31
2023-03-28T05:12:20.135Z,1024.48
2023-03-28T05:12:51.032Z,1024.48
2023-03-28T05:13:22.023Z,1024.48
2023-03-28T05:13:52.808Z,1024.48
2023-03-28T05:14:23.960Z,1024.48
2023-03-28T05:14:54.725Z,1024.48
2023-03-28T05:15:26.953Z,1024.48
2023-03-28T05:15:57.088Z,1024.48
2023-03-28T05:16:27.953Z,1024.41
2023-03-28T05:16:58.951Z,1024.41
2023-03-28T05:17:30.003Z,1024.48
2023-03-28T05:18:00.682Z,1024.48
2023-03-28T05:18:31.901Z,1024.69
2023-03-28T05:19:03.058Z,1024.69
2023-03-28T05:19:33.739Z,1024.48
2023-03-28T05:20:05.115Z,1024.48
2023-03-28T05:20:36.036Z,1024.41
2023-03-28T05:21:07.037Z,1024.41
2023-03-28T05:21:37.655Z,1024.58
2023-03-28T05:22:08.872Z,1024.58
2023-03-28T05:22:39.922Z,1024.69
2023-03-28T05:23:11.100Z,1024.69
2023-03-28T05:23:42.070Z,1024.58
2023-03-28T05:24:13.085Z,1024.58
2023-03-28T05:24:43.740Z,1024.58
2023-03-28T05:25:15.640Z,1024.58
2023-03-28T05:25:45.998Z,1024.58
2023-03-28T05:26:16.969Z,1024.58
2023-03-28T05:26:48.348Z,1024.58
2023-03-28T05:27:18.992Z,1024.79
2023-03-28T05:27:49.727Z,1024.79
2023-03-28T05:28:20.954Z,1024.58
2023-03-28T05:28:51.985Z,1024.58
2023-03-28T05:29:25.067Z,1024.58
2023-03-28T05:29:53.927Z,1024.58
2023-03-28T05:30:27.867Z,1024.69
2023-03-28T05:30:56.081Z,1024.69
2023-03-28T05:31:27.082Z,1024.58
2023-03-28T05:31:58.189Z,1024.58
2023-03-28T05:32:29.330Z,1024.48
2023-03-28T05:33:00.200Z,1024.48
2023-03-28T05:33:31.057Z,1024.58
2023-03-28T05:34:01.632Z,1024.58
2023-03-28T05:34:33.207Z,1024.79
2023-03-28T05:35:04.295Z,1024.79
2023-03-28T05:35:35.574Z,1024.58
2023-03-28T05:36:05.839Z,1024.58
2023-03-28T05:36:36.740Z,1024.58
2023-03-28T05:37:08.046Z,1024.58
2023-03-28T05:37:42.099Z,1024.69
2023-03-28T05:38:10.695Z,1024.69
2023-03-28T05:38:41.128Z,1024.79
2023-03-28T05:39:12.154Z,1024.79
2023-03-28T05:39:43.368Z,1024.69
2023-03-28T05:40:14.218Z,1024.69
2023-03-28T05:40:44.735Z,1024.79
2023-03-28T05:41:16.086Z,1024.79
2023-03-28T05:41:46.973Z,1024.58
2023-03-28T05:42:17.624Z,1024.58
2023-03-28T05:42:48.817Z,1024.79
2023-03-28T05:43:19.987Z,1024.58
2023-03-28T05:43:51.131Z,1024.58
2023-03-28T05:44:22.188Z,1024.69
2023-03-28T05:44:53.346Z,1024.69
2023-03-28T05:45:24.803Z,1024.79
2023-03-28T05:45:55.124Z,1024.79
2023-03-28T05:46:26.424Z,1024.89
2023-03-28T05:46:56.774Z,1024.89
2023-03-28T05:47:27.990Z,1024.79
2023-03-28T05:47:59.131Z,1024.79
2023-03-28T05:48:30.115Z,1024.89
2023-03-28T05:49:00.967Z,1024.89
2023-03-28T05:49:31.938Z,1024.58
2023-03-28T05:50:03.259Z,1024.58
2023-03-28T05:50:33.712Z,1024.79
2023-03-28T05:51:05.047Z,1024.79
2023-03-28T05:51:36.012Z,1024.99
2023-03-28T05:52:07.132Z,1024.99
2023-03-28T05:52:38.081Z,1024.79
2023-03-28T05:53:09.180Z,1024.79
2023-03-28T05:53:40.142Z,1024.79
2023-03-28T05:54:10.809Z,1024.79
2023-03-28T05:54:42.077Z,1024.69
2023-03-28T05:55:13.364Z,1024.69
2023-03-28T05:55:44.027Z,1025.09
2023-03-28T05:56:15.159Z,1025.09
2023-03-28T05:56:46.018Z,1024.69
2023-03-28T05:57:17.176Z,1024.69
2023-03-28T05:57:48.040Z,1024.69
2023-03-28T05:58:19.036Z,1024.99
2023-03-28T05:58:50.073Z,1024.99
2023-03-28T05:59:21.387Z,1024.99
2023-03-28T05:59:52.068Z,1024.99
2023-03-28T06:00:24.218Z,1024.79
2023-03-28T06:00:56.417Z,1024.79
2023-03-28T06:01:25.145Z,1024.89
2023-03-28T06:01:58.191Z,1024.89
2023-03-28T06:02:27.203Z,1025.09
2023-03-28T06:02:58.386Z,1025.09
2023-03-28T06:03:29.140Z,1024.79
2023-03-28T06:04:00.384Z,1024.79
2023-03-28T06:04:31.442Z,1024.89
2023-03-28T06:05:02.442Z,1024.89
2023-03-28T06:05:33.427Z,1024.79
2023-03-28T06:06:04.339Z,1024.79
2023-03-28T06:06:35.717Z,1024.79
2023-03-28T06:07:05.816Z,1024.79
2023-03-28T06:07:42.628Z,1025.09
2023-03-28T06:08:08.227Z,1025.09
2023-03-28T06:08:39.110Z,1024.89
2023-03-28T06:09:09.909Z,1024.89
2023-03-28T06:09:40.839Z,1025.09
2023-03-28T06:10:12.077Z,1025.09
2023-03-28T06:10:42.935Z,1025.19
2023-03-28T06:11:13.970Z,1025.19
2023-03-28T06:11:45.135Z,1024.99
2023-03-28T06:12:16.146Z,1024.99
2023-03-28T06:12:47.651Z,1024.89
2023-03-28T06:13:18.264Z,1024.89
2023-03-28T06:13:49.237Z,1024.99
2023-03-28T06:14:20.996Z,1024.99
2023-03-28T06:14:51.270Z,1024.99